createdAt,value
2022-10-24T00:00:39.739Z,13.80
2022-10-24T00:03:46.649Z,13.77
2022-10-24T00:06:51.272Z,13.80
2022-10-24T00:10:04.062Z,13.84
2022-10-24T00:13:12.226Z,13.81
2022-10-24T00:16:31.386Z,13.78
2022-10-24T00:19:33.527Z,13.77
2022-10-24T00:22:38.346Z,13.85
2022-10-24T00:25:40.878Z,13.80
2022-10-24T00:28:44.213Z,13.75
2022-10-24T00:31:46.547Z,13.73
2022-10-24T00:34:48.617Z,13.82
2022-10-24T00:38:08.268Z,13.82
2022-10-24T00:41:38.136Z,13.83
2022-10-24T00:44:41.604Z,13.78
2022-10-24T00:47:44.812Z,13.78
2022-10-24T00:50:52.626Z,13.74
2022-10-24T00:54:10.198Z,13.72
2022-10-24T00:57:28.992Z,13.61
2022-10-24T01:00:33.994Z,13.74
2022-10-24T01:03:53.077Z,13.70
2022-10-24T01:07:13.757Z,13.72
2022-10-24T01:11:12.497Z,13.60
2022-10-24T01:14:16.937Z,13.61
2022-10-24T01:17:22.879Z,13.69
2022-10-24T01:20:30.850Z,13.54
2022-10-24T01:23:38.319Z,13.50
2022-10-24T01:26:57.419Z,13.50
2022-10-24T01:30:20.433Z,13.49
2022-10-24T01:33:45.351Z,13.52
2022-10-24T01:36:57.022Z,13.53
2022-10-24T01:40:03.417Z,13.50
2022-10-24T01:43:12.202Z,13.52
2022-10-24T01:46:23.783Z,13.54
2022-10-24T01:49:31.943Z,13.46
2022-10-24T01:52:36.671Z,13.43
2022-10-24T01:55:45.831Z,13.53
2022-10-24T01:58:52.790Z,13.60
2022-10-24T02:02:03.872Z,13.58
2022-10-24T02:05:22.820Z,13.55
2022-10-24T02:08:30.518Z,13.62
2022-10-24T02:11:34.825Z,13.52
2022-10-24T02:14:41.083Z,13.43
2022-10-24T02:18:02.133Z,13.41
2022-10-24T02:21:04.211Z,13.42
2022-10-24T02:24:27.892Z,13.46
2022-10-24T02:27:48.430Z,13.45
2022-10-24T02:31:00.315Z,13.48
2022-10-24T02:34:04.819Z,13.42
2022-10-24T02:37:09.137Z,13.41
2022-10-24T02:40:14.347Z,13.44
2022-10-24T02:43:28.593Z,13.34
2022-10-24T02:46:34.660Z,13.32
2022-10-24T02:49:40.659Z,13.31
2022-10-24T02:52:44.030Z,13.26
2022-10-24T02:55:47.914Z,13.25
2022-10-24T02:58:56.289Z,13.29
2022-10-24T03:01:58.827Z,13.34
2022-10-24T03:05:18.797Z,13.36
2022-10-24T03:08:21.547Z,13.36
2022-10-24T03:11:27.231Z,13.40
2022-10-24T03:14:42.443Z,13.37
2022-10-24T03:21:10.629Z,13.39
2022-10-24T03:24:13.154Z,13.27
2022-10-24T03:27:18.158Z,13.22
2022-10-24T03:30:34.443Z,13.28
2022-10-24T03:33:38.265Z,13.26
2022-10-24T03:36:41.908Z,13.21
2022-10-24T03:39:44.424Z,13.18
2022-10-24T03:42:46.946Z,13.22
2022-10-24T03:45:49.888Z,13.21
2022-10-24T03:48:52.312Z,13.27
2022-10-24T03:52:08.831Z,13.36
2022-10-24T03:55:18.673Z,13.28
2022-10-24T03:58:21.076Z,13.28
2022-10-24T04:01:29.843Z,13.21
2022-10-24T04:04:33.375Z,13.20
2022-10-24T04:07:51.797Z,13.21
2022-10-24T04:11:01.421Z,13.22
2022-10-24T04:14:04.202Z,13.21
2022-10-24T04:17:19.494Z,13.29
2022-10-24T04:20:23.296Z,13.37
2022-10-24T04:23:38.086Z,13.32
2022-10-24T04:26:46.422Z,13.36
2022-10-24T04:29:51.612Z,13.34
2022-10-24T04:33:01.102Z,13.19
2022-10-24T04:36:03.521Z,13.15
2022-10-24T04:39:11.752Z,13.14
2022-10-24T04:42:29.299Z,13.10
2022-10-24T04:45:35.903Z,13.05
2022-10-24T04:48:38.021Z,13.05
2022-10-24T04:51:42.758Z,13.06
2022-10-24T04:54:45.968Z,13.04
2022-10-24T04:57:49.483Z,13.00
2022-10-24T05:01:00.096Z,13.04
2022-10-24T05:07:04.763Z,13.08
2022-10-24T05:10:07.444Z,13.05
2022-10-24T05:13:11.450Z,13.03
2022-10-24T05:16:13.933Z,12.96
2022-10-24T05:19:24.125Z,12.89
2022-10-24T05:22:34.286Z,12.84
2022-10-24T05:32:14.313Z,12.71
2022-10-24T05:35:22.595Z,12.70
2022-10-24T05:38:25.257Z,12.70
2022-10-24T05:41:27.469Z,12.67
2022-10-24T05:44:33.260Z,12.70
2022-10-24T05:47:39.029Z,12.78
2022-10-24T05:50:41.314Z,12.76
2022-10-24T05:53:43.708Z,12.75
2022-10-24T05:56:55.191Z,12.80
2022-10-24T05:59:59.437Z,12.74
2022-10-24T06:03:01.674Z,12.80
2022-10-24T06:06:07.920Z,12.79
2022-10-24T06:09:10.928Z,12.88
2022-10-24T06:12:13.004Z,12.74
2022-10-24T06:15:28.436Z,12.75
2022-10-24T06:18:30.657Z,12.70
2022-10-24T06:21:33.156Z,12.73
2022-10-24T06:24:43.046Z,12.82
2022-10-24T06:31:05.576Z,12.86
2022-10-24T06:37:40.966Z,12.81
2022-10-24T06:40:57.853Z,12.81
2022-10-24T06:44:04.313Z,12.82
2022-10-24T06:47:14.466Z,12.74
2022-10-24T06:50:22.177Z,12.66
2022-10-24T06:53:25.243Z,12.71
2022-10-24T06:56:28.388Z,12.76
2022-10-24T07:02:55.992Z,12.81
2022-10-24T07:05:59.550Z,12.75
2022-10-24T07:09:14.428Z,12.83
2022-10-24T07:12:29.726Z,12.86
2022-10-24T07:15:37.648Z,12.83
2022-10-24T07:18:43.692Z,12.86
2022-10-24T07:21:45.988Z,12.92
2022-10-24T07:24:52.915Z,12.95
2022-10-24T07:27:56.254Z,12.97
2022-10-24T07:31:02.621Z,12.90
2022-10-24T07:34:06.423Z,12.94
2022-10-24T07:37:08.502Z,12.88
2022-10-24T07:40:15.169Z,12.88
2022-10-24T07:43:20.248Z,12.88
2022-10-24T07:46:27.482Z,12.83
2022-10-24T07:49:31.552Z,12.76
2022-10-24T07:52:36.972Z,12.76
2022-10-24T07:55:45.167Z,12.73
2022-10-24T07:58:54.533Z,12.63
2022-10-24T08:02:07.272Z,12.64
2022-10-24T08:05:10.859Z,12.59
2022-10-24T08:08:30.704Z,12.52
2022-10-24T08:11:37.616Z,12.53
2022-10-24T08:14:59.308Z,12.54
2022-10-24T08:18:01.441Z,12.61
2022-10-24T08:21:16.244Z,12.59
2022-10-24T08:24:18.389Z,12.60
2022-10-24T08:27:20.638Z,12.68
2022-10-24T08:30:24.312Z,12.62
2022-10-24T08:33:29.442Z,12.67
2022-10-24T08:40:15.239Z,12.72
2022-10-24T08:43:25.275Z,12.62
2022-10-24T08:46:33.699Z,12.63
2022-10-24T08:50:08.040Z,12.80
2022-10-24T08:53:24.826Z,12.92
2022-10-24T08:56:48.117Z,12.97
2022-10-24T08:59:50.532Z,13.00
2022-10-24T09:03:26.499Z,13.08
2022-10-24T09:06:53.021Z,13.16
2022-10-24T09:10:08.456Z,13.14
2022-10-24T09:13:17.326Z,13.38
2022-10-24T09:16:21.385Z,13.18
2022-10-24T09:19:35.184Z,13.06
2022-10-24T09:22:52.584Z,13.13
2022-10-24T09:25:55.970Z,13.29
2022-10-24T09:28:58.824Z,13.21
2022-10-24T09:32:02.948Z,13.22
2022-10-24T09:35:16.436Z,13.30
2022-10-24T09:38:38.035Z,13.41
2022-10-24T09:41:59.498Z,13.42
2022-10-24T09:45:02.150Z,13.35
2022-10-24T09:48:26.141Z,13.39
2022-10-24T09:51:41.235Z,13.44
2022-10-24T09:54:59.517Z,13.44
2022-10-24T09:58:15.162Z,13.43
2022-10-24T10:01:17.329Z,13.42
2022-10-24T10:04:29.897Z,13.48
2022-10-24T10:07:39.874Z,13.55
2022-10-24T10:10:52.172Z,13.46
2022-10-24T10:14:01.188Z,13.46
2022-10-24T10:17:33.946Z,13.46
2022-10-24T10:20:42.623Z,13.43
2022-10-24T10:23:49.917Z,13.46
2022-10-24T10:26:54.842Z,13.43
2022-10-24T10:30:23.676Z,13.40
2022-10-24T10:33:47.135Z,13.37
2022-10-24T10:37:12.918Z,13.24
2022-10-24T10:41:02.083Z,13.34
2022-10-24T10:44:11.912Z,13.40
2022-10-24T10:47:35.563Z,13.60
2022-10-24T10:50:43.785Z,13.76
2022-10-24T10:53:57.418Z,13.60
2022-10-24T10:57:05.644Z,13.65
2022-10-24T11:00:17.542Z,13.79
2022-10-24T11:03:38.918Z,13.80
2022-10-24T11:07:05.755Z,13.92
2022-10-24T11:10:18.342Z,14.04
2022-10-24T11:13:28.527Z,13.92
2022-10-24T11:16:52.052Z,14.05
2022-10-24T11:20:01.062Z,14.07
2022-10-24T11:23:29.628Z,14.19
2022-10-24T11:26:34.390Z,14.28
2022-10-24T11:29:57.506Z,14.16
2022-10-24T11:33:13.487Z,14.17
2022-10-24T11:36:32.637Z,14.21
2022-10-24T11:39:42.849Z,14.20
2022-10-24T11:42:58.772Z,14.29
2022-10-24T11:46:22.387Z,14.08
2022-10-24T11:49:33.516Z,14.18
2022-10-24T11:52:54.167Z,14.28
2022-10-24T11:56:18.163Z,14.44
2022-10-24T11:59:25.809Z,14.65
2022-10-24T12:02:38.212Z,14.80
2022-10-24T12:06:05.810Z,14.91
2022-10-24T12:09:08.210Z,14.97
2022-10-24T12:12:37.006Z,15.02
2022-10-24T12:16:10.938Z,14.86
2022-10-24T12:19:18.573Z,14.74
2022-10-24T12:25:36.401Z,14.72
2022-10-24T12:28:54.574Z,14.51
2022-10-24T12:31:56.597Z,14.59
2022-10-24T12:35:29.555Z,14.69
2022-10-24T12:38:38.704Z,14.77
2022-10-24T12:41:49.621Z,14.98
2022-10-24T12:45:14.499Z,15.05
2022-10-24T12:48:34.755Z,15.00
2022-10-24T12:51:44.005Z,14.96
2022-10-24T12:54:46.250Z,14.87
2022-10-24T12:57:55.307Z,14.50
2022-10-24T13:01:13.475Z,14.56
2022-10-24T13:04:29.564Z,14.60
2022-10-24T13:07:47.120Z,14.56
2022-10-24T13:11:09.917Z,14.77
2022-10-24T13:14:38.146Z,15.00
2022-10-24T13:17:50.712Z,15.07
2022-10-24T13:21:15.124Z,15.11
2022-10-24T13:24:29.068Z,15.28
2022-10-24T13:27:36.687Z,15.24
2022-10-24T13:30:49.738Z,15.18
2022-10-24T13:34:19.629Z,15.14
2022-10-24T13:37:26.577Z,15.00
2022-10-24T13:40:33.309Z,15.14
2022-10-24T13:43:38.955Z,15.19
2022-10-24T13:47:00.535Z,15.26
2022-10-24T13:50:18.389Z,15.25
2022-10-24T13:53:33.392Z,14.93
2022-10-24T13:56:41.109Z,14.84
2022-10-24T13:59:44.100Z,14.82
2022-10-24T14:02:47.639Z,14.85
2022-10-24T14:05:57.061Z,14.75
2022-10-24T14:09:07.309Z,14.74
2022-10-24T14:12:24.411Z,14.70
2022-10-24T14:15:31.055Z,14.78
2022-10-24T14:18:34.459Z,14.79
2022-10-24T14:21:49.938Z,14.80
2022-10-24T14:24:58.152Z,14.65
2022-10-24T14:28:03.444Z,14.62
2022-10-24T14:31:07.478Z,14.68
2022-10-24T14:34:20.373Z,14.86
2022-10-24T14:37:37.217Z,14.80
2022-10-24T14:40:41.972Z,14.74
2022-10-24T14:43:45.110Z,14.74
2022-10-24T14:47:00.991Z,14.74
2022-10-24T14:50:03.911Z,14.66
2022-10-24T14:53:06.729Z,14.65
2022-10-24T14:56:23.972Z,14.68
2022-10-24T14:59:30.608Z,14.62
2022-10-24T15:02:37.521Z,14.58
2022-10-24T15:05:43.033Z,14.59
2022-10-24T15:08:51.086Z,14.57
2022-10-24T15:12:01.858Z,14.63
2022-10-24T15:15:23.530Z,14.54
2022-10-24T15:18:41.738Z,14.54
2022-10-24T15:21:45.938Z,14.54
2022-10-24T15:24:51.700Z,14.49
2022-10-24T15:28:00.116Z,14.51
2022-10-24T15:31:02.445Z,14.49
2022-10-24T15:34:08.549Z,14.41
2022-10-24T15:37:19.528Z,14.29
2022-10-24T15:40:23.857Z,14.25
2022-10-24T15:43:28.221Z,14.25
2022-10-24T15:46:31.370Z,14.36
2022-10-24T15:49:40.325Z,14.30
2022-10-24T15:52:44.287Z,14.25
2022-10-24T15:55:48.311Z,14.22
2022-10-24T15:58:51.341Z,14.22
2022-10-24T16:01:56.200Z,14.22
2022-10-24T16:04:59.321Z,14.21
2022-10-24T16:08:01.799Z,14.19
2022-10-24T16:11:07.595Z,14.20
2022-10-24T16:14:16.837Z,14.19
2022-10-24T16:17:19.981Z,14.22
2022-10-24T16:20:22.476Z,14.22
2022-10-24T16:23:26.588Z,14.23
2022-10-24T16:26:29.215Z,14.19
2022-10-24T16:29:33.906Z,14.16
2022-10-24T16:32:36.161Z,14.19
2022-10-24T16:35:39.854Z,14.15
2022-10-24T16:38:42.000Z,14.21
2022-10-24T16:41:46.855Z,14.14
2022-10-24T16:44:49.300Z,14.21
2022-10-24T16:47:53.360Z,14.24
2022-10-24T16:50:55.985Z,14.24
2022-10-24T16:54:02.296Z,14.21
2022-10-24T16:57:05.803Z,14.12
2022-10-24T17:00:10.051Z,14.07
2022-10-24T17:03:14.123Z,14.10
2022-10-24T17:06:17.478Z,14.08
2022-10-24T17:09:20.510Z,14.05
2022-10-24T17:12:24.936Z,13.98
2022-10-24T17:15:28.537Z,13.96
2022-10-24T17:18:32.963Z,13.92
2022-10-24T17:21:38.309Z,13.96
2022-10-24T17:24:41.247Z,13.92
2022-10-24T17:27:44.043Z,13.83
2022-10-24T17:30:46.711Z,13.74
2022-10-24T17:33:49.419Z,13.65
2022-10-24T17:36:57.727Z,13.60
2022-10-24T17:40:03.518Z,13.54
2022-10-24T17:43:06.813Z,13.50
2022-10-24T17:46:13.173Z,13.42
2022-10-24T17:49:21.561Z,13.32
2022-10-24T17:52:25.294Z,13.26
2022-10-24T17:55:46.583Z,13.20
2022-10-24T17:58:51.446Z,13.12
2022-10-24T18:01:54.682Z,13.05
2022-10-24T18:04:57.035Z,12.98
2022-10-24T18:08:00.686Z,12.95
2022-10-24T18:11:09.958Z,12.86
2022-10-24T18:14:13.060Z,12.81
2022-10-24T18:17:16.151Z,12.77
2022-10-24T18:20:19.748Z,12.74
2022-10-24T18:23:22.743Z,12.68
2022-10-24T18:26:26.840Z,12.57
2022-10-24T18:29:29.683Z,12.60
2022-10-24T18:32:32.104Z,12.54
2022-10-24T18:35:36.337Z,12.49
2022-10-24T18:38:42.597Z,12.36
2022-10-24T18:41:55.031Z,12.28
2022-10-24T18:44:57.797Z,12.26
2022-10-24T18:48:01.138Z,12.29
2022-10-24T18:51:04.577Z,12.20
2022-10-24T18:54:08.250Z,12.16
2022-10-24T18:57:29.600Z,12.20
2022-10-24T19:00:33.725Z,12.12
2022-10-24T19:03:40.413Z,12.02
2022-10-24T19:06:44.398Z,11.96
2022-10-24T19:09:47.899Z,11.98
2022-10-24T19:12:50.665Z,12.08
2022-10-24T19:15:56.281Z,12.11
2022-10-24T19:19:00.099Z,12.10
2022-10-24T19:22:03.540Z,12.07
2022-10-24T19:25:07.669Z,12.02
2022-10-24T19:28:12.694Z,11.99
2022-10-24T19:31:16.927Z,11.96
2022-10-24T19:34:19.264Z,11.95
2022-10-24T19:37:21.632Z,11.91
2022-10-24T19:40:23.709Z,11.98
2022-10-24T19:43:30.207Z,11.97
2022-10-24T19:46:33.504Z,11.87
2022-10-24T19:49:36.365Z,11.89
2022-10-24T19:52:39.871Z,11.88
2022-10-24T19:55:43.705Z,11.98
2022-10-24T19:58:47.179Z,11.95
2022-10-24T20:01:49.777Z,11.99
2022-10-24T20:04:53.559Z,12.01
2022-10-24T20:07:56.247Z,12.00
2022-10-24T20:10:58.248Z,11.92
2022-10-24T20:14:01.507Z,11.94
2022-10-24T20:17:04.200Z,11.91
2022-10-24T20:20:06.887Z,12.00
2022-10-24T20:23:10.378Z,12.05
2022-10-24T20:26:19.745Z,12.02
2022-10-24T20:29:22.186Z,11.95
2022-10-24T20:32:24.987Z,11.95
2022-10-24T20:35:27.567Z,11.93
2022-10-24T20:38:31.897Z,11.94
2022-10-24T20:41:34.638Z,12.02
2022-10-24T20:44:36.941Z,12.05
2022-10-24T20:47:39.486Z,11.94
2022-10-24T20:50:43.124Z,11.93
2022-10-24T20:53:46.207Z,12.07
2022-10-24T20:56:48.795Z,12.05
2022-10-24T20:59:52.070Z,12.04
2022-10-24T21:02:55.879Z,12.11
2022-10-24T21:05:58.866Z,12.14
2022-10-24T21:09:08.409Z,12.15
2022-10-24T21:12:10.991Z,12.22
2022-10-24T21:15:13.873Z,12.28
2022-10-24T21:18:16.830Z,12.31
2022-10-24T21:21:19.560Z,12.31
2022-10-24T21:24:21.582Z,12.36
2022-10-24T21:27:26.143Z,12.42
2022-10-24T21:30:30.351Z,12.53
2022-10-24T21:33:33.363Z,12.53
2022-10-24T21:36:36.517Z,12.52
2022-10-24T21:39:39.942Z,12.49
2022-10-24T21:42:42.160Z,12.60
2022-10-24T21:45:45.504Z,12.63
2022-10-24T21:48:49.422Z,12.64
2022-10-24T21:51:53.451Z,12.61
2022-10-24T21:54:57.893Z,12.59
2022-10-24T21:57:59.924Z,12.64
2022-10-24T22:01:02.958Z,12.67
2022-10-24T22:04:06.520Z,12.70
2022-10-24T22:07:09.415Z,12.73
2022-10-24T22:10:12.401Z,12.72
2022-10-24T22:13:14.450Z,12.69
2022-10-24T22:16:17.761Z,12.78
2022-10-24T22:19:20.844Z,12.85
2022-10-24T22:22:27.289Z,12.89
2022-10-24T22:25:29.479Z,12.82
2022-10-24T22:28:31.620Z,12.83
2022-10-24T22:31:35.034Z,12.85
2022-10-24T22:34:37.286Z,12.83
2022-10-24T22:37:39.616Z,12.89
2022-10-24T22:40:41.852Z,12.94
2022-10-24T22:43:46.594Z,13.00
2022-10-24T22:46:51.524Z,13.02
2022-10-24T22:50:03.051Z,12.98
2022-10-24T22:53:08.670Z,12.98
2022-10-24T22:56:30.640Z,13.00
2022-10-24T22:59:33.611Z,13.05
2022-10-24T23:02:47.949Z,13.03
2022-10-24T23:06:29.280Z,13.01
2022-10-24T23:09:31.333Z,12.97
2022-10-24T23:12:38.513Z,13.00
2022-10-24T23:15:41.996Z,13.02
2022-10-24T23:18:55.365Z,13.06
2022-10-24T23:22:01.147Z,13.03
2022-10-24T23:25:03.531Z,13.06
2022-10-24T23:28:24.585Z,13.05
2022-10-24T23:31:27.208Z,13.10
2022-10-24T23:34:29.669Z,13.19
2022-10-24T23:37:40.179Z,13.25
2022-10-24T23:40:45.500Z,13.22
2022-10-24T23:43:48.512Z,13.20
2022-10-24T23:47:20.191Z,13.19
2022-10-24T23:50:48.015Z,13.19
2022-10-24T23:53:53.336Z,13.20
2022-10-24T23:57:04.285Z,13.26
